sensor_id;sensor_type;location;lat;lon;timestamp;P1;durP1;ratioP1;P2;durP2;ratioP2
20012;SDS011;10167;42.852;23.042;2024-01-16T00:02:08;0.75;;;0.75;;
20012;SDS011;10167;42.852;23.042;2024-01-16T00:04:37;2.03;;;0.98;;
20012;SDS011;10167;42.852;23.042;2024-01-16T00:07:08;1.80;;;1.65;;
20012;SDS011;10167;42.852;23.042;2024-01-16T00:09:37;0.88;;;0.88;;
20012;SDS011;10167;42.852;23.042;2024-01-16T00:12:07;0.85;;;0.85;;
20012;SDS011;10167;42.852;23.042;2024-01-16T00:14:36;1.70;;;1.60;;
20012;SDS011;10167;42.852;23.042;2024-01-16T00:17:08;0.77;;;0.50;;
20012;SDS011;10167;42.852;23.042;2024-01-16T00:19:39;4.95;;;2.67;;
20012;SDS011;10167;42.852;23.042;2024-01-16T00:22:08;2.10;;;1.58;;
20012;SDS011;10167;42.852;23.042;2024-01-16T00:24:38;2.70;;;1.95;;
20012;SDS011;10167;42.852;23.042;2024-01-16T00:27:07;1.45;;;1.13;;
20012;SDS011;10167;42.852;23.042;2024-01-16T00:29:37;0.50;;;0.50;;
20012;SDS011;10167;42.852;23.042;2024-01-16T00:32:08;1.95;;;1.65;;
20012;SDS011;10167;42.852;23.042;2024-01-16T00:34:37;0.98;;;0.95;;
20012;SDS011;10167;42.852;23.042;2024-01-16T00:37:06;3.72;;;2.60;;
20012;SDS011;10167;42.852;23.042;2024-01-16T00:39:36;1.33;;;1.25;;
20012;SDS011;10167;42.852;23.042;2024-01-16T00:42:05;3.03;;;1.77;;
20012;SDS011;10167;42.852;23.042;2024-01-16T00:44:34;0.45;;;0.45;;
20012;SDS011;10167;42.852;23.042;2024-01-16T00:47:03;0.50;;;0.50;;
20012;SDS011;10167;42.852;23.042;2024-01-16T00:49:34;0.30;;;0.30;;
20012;SDS011;10167;42.852;23.042;2024-01-16T00:52:04;7.78;;;2.42;;
20012;SDS011;10167;42.852;23.042;2024-01-16T00:54:34;9.65;;;3.60;;
20012;SDS011;10167;42.852;23.042;2024-01-16T00:57:04;3.90;;;2.85;;
20012;SDS011;10167;42.852;23.042;2024-01-16T00:59:33;2.00;;;1.55;;
20012;SDS011;10167;42.852;23.042;2024-01-16T01:02:03;0.98;;;0.98;;
20012;SDS011;10167;42.852;23.042;2024-01-16T01:04:32;3.20;;;1.25;;
20012;SDS011;10167;42.852;23.042;2024-01-16T01:07:03;1.23;;;1.15;;
20012;SDS011;10167;42.852;23.042;2024-01-16T01:09:32;0.52;;;0.52;;
20012;SDS011;10167;42.852;23.042;2024-01-16T01:12:02;8.82;;;0.63;;
20012;SDS011;10167;42.852;23.042;2024-01-16T01:14:31;1.35;;;0.45;;
20012;SDS011;10167;42.852;23.042;2024-01-16T01:17:00;1.23;;;0.45;;
20012;SDS011;10167;42.852;23.042;2024-01-16T01:19:30;0.20;;;0.20;;
20012;SDS011;10167;42.852;23.042;2024-01-16T01:21:59;1.23;;;1.15;;
20012;SDS011;10167;42.852;23.042;2024-01-16T01:24:30;0.10;;;0.10;;
20012;SDS011;10167;42.852;23.042;2024-01-16T01:26:59;0.30;;;0.30;;
20012;SDS011;10167;42.852;23.042;2024-01-16T01:29:29;5.97;;;0.68;;
20012;SDS011;10167;42.852;23.042;2024-01-16T01:31:58;1.33;;;0.82;;
20012;SDS011;10167;42.852;23.042;2024-01-16T01:34:27;0.68;;;0.68;;
20012;SDS011;10167;42.852;23.042;2024-01-16T01:36:56;0.17;;;0.17;;
20012;SDS011;10167;42.852;23.042;2024-01-16T01:39:26;0.52;;;0.30;;
20012;SDS011;10167;42.852;23.042;2024-01-16T01:41:57;0.40;;;0.40;;
20012;SDS011;10167;42.852;23.042;2024-01-16T01:44:26;1.08;;;0.80;;
20012;SDS011;10167;42.852;23.042;2024-01-16T01:46:56;0.32;;;0.32;;
20012;SDS011;10167;42.852;23.042;2024-01-16T01:49:25;1.98;;;0.95;;
20012;SDS011;10167;42.852;23.042;2024-01-16T01:51:56;0.80;;;0.68;;
20012;SDS011;10167;42.852;23.042;2024-01-16T01:54:25;0.17;;;0.17;;
20012;SDS011;10167;42.852;23.042;2024-01-16T01:56:57;0.30;;;0.30;;
20012;SDS011;10167;42.852;23.042;2024-01-16T01:59:26;0.10;;;0.10;;
20012;SDS011;10167;42.852;23.042;2024-01-16T02:01:58;2.97;;;2.72;;
20012;SDS011;10167;42.852;23.042;2024-01-16T02:04:28;6.45;;;1.90;;
20012;SDS011;10167;42.852;23.042;2024-01-16T02:06:59;6.40;;;2.45;;
20012;SDS011;10167;42.852;23.042;2024-01-16T02:09:29;11.55;;;4.05;;
20012;SDS011;10167;42.852;23.042;2024-01-16T02:12:00;11.38;;;8.30;;
20012;SDS011;10167;42.852;23.042;2024-01-16T02:14:30;9.93;;;5.43;;
20012;SDS011;10167;42.852;23.042;2024-01-16T02:16:59;3.17;;;2.47;;
20012;SDS011;10167;42.852;23.042;2024-01-16T02:19:29;0.60;;;0.60;;
20012;SDS011;10167;42.852;23.042;2024-01-16T02:21:59;0.63;;;0.63;;
20012;SDS011;10167;42.852;23.042;2024-01-16T02:24:30;0.68;;;0.55;;
20012;SDS011;10167;42.852;23.042;2024-01-16T02:27:00;0.20;;;0.20;;
20012;SDS011;10167;42.852;23.042;2024-01-16T02:29:29;0.20;;;0.20;;
20012;SDS011;10167;42.852;23.042;2024-01-16T02:31:59;0.90;;;0.88;;
20012;SDS011;10167;42.852;23.042;2024-01-16T02:34:28;0.10;;;0.10;;
20012;SDS011;10167;42.852;23.042;2024-01-16T02:36:57;0.20;;;0.20;;
20012;SDS011;10167;42.852;23.042;2024-01-16T02:39:27;0.68;;;0.60;;
20012;SDS011;10167;42.852;23.042;2024-01-16T02:41:58;0.70;;;0.70;;
20012;SDS011;10167;42.852;23.042;2024-01-16T02:44:27;1.20;;;0.93;;
20012;SDS011;10167;42.852;23.042;2024-01-16T02:46:56;1.00;;;0.98;;
20012;SDS011;10167;42.852;23.042;2024-01-16T02:49:25;2.65;;;1.95;;
20012;SDS011;10167;42.852;23.042;2024-01-16T02:51:55;1.52;;;1.38;;
20012;SDS011;10167;42.852;23.042;2024-01-16T02:54:24;1.08;;;0.98;;
20012;SDS011;10167;42.852;23.042;2024-01-16T02:56:53;1.13;;;0.88;;
20012;SDS011;10167;42.852;23.042;2024-01-16T02:59:24;1.15;;;1.05;;
20012;SDS011;10167;42.852;23.042;2024-01-16T03:01:55;0.40;;;0.40;;
20012;SDS011;10167;42.852;23.042;2024-01-16T03:04:28;0.60;;;0.60;;
20012;SDS011;10167;42.852;23.042;2024-01-16T03:06:57;1.10;;;0.77;;
20012;SDS011;10167;42.852;23.042;2024-01-16T03:09:26;0.28;;;0.28;;
20012;SDS011;10167;42.852;23.042;2024-01-16T03:11:55;0.25;;;0.25;;
20012;SDS011;10167;42.852;23.042;2024-01-16T03:14:26;1.40;;;0.60;;
20012;SDS011;10167;42.852;23.042;2024-01-16T03:17:01;0.82;;;0.82;;
20012;SDS011;10167;42.852;23.042;2024-01-16T03:19:31;0.38;;;0.38;;
20012;SDS011;10167;42.852;23.042;2024-01-16T03:22:01;0.30;;;0.30;;
20012;SDS011;10167;42.852;23.042;2024-01-16T03:24:30;0.20;;;0.20;;
20012;SDS011;10167;42.852;23.042;2024-01-16T03:26:59;0.55;;;0.55;;
20012;SDS011;10167;42.852;23.042;2024-01-16T03:29:30;0.63;;;0.47;;
20012;SDS011;10167;42.852;23.042;2024-01-16T03:32:01;1.73;;;0.70;;
20012;SDS011;10167;42.852;23.042;2024-01-16T03:34:30;0.47;;;0.30;;
20012;SDS011;10167;42.852;23.042;2024-01-16T03:37:00;0.20;;;0.20;;
20012;SDS011;10167;42.852;23.042;2024-01-16T03:39:29;0.32;;;0.32;;
20012;SDS011;10167;42.852;23.042;2024-01-16T03:41:58;0.40;;;0.40;;
20012;SDS011;10167;42.852;23.042;2024-01-16T03:44:27;1.90;;;0.43;;
20012;SDS011;10167;42.852;23.042;2024-01-16T03:46:58;0.15;;;0.15;;
20012;SDS011;10167;42.852;23.042;2024-01-16T03:49:27;0.30;;;0.30;;
20012;SDS011;10167;42.852;23.042;2024-01-16T03:51:56;0.20;;;0.20;;
20012;SDS011;10167;42.852;23.042;2024-01-16T03:54:25;0.30;;;0.30;;
20012;SDS011;10167;42.852;23.042;2024-01-16T03:56:55;0.22;;;0.22;;
20012;SDS011;10167;42.852;23.042;2024-01-16T03:59:24;0.40;;;0.40;;
20012;SDS011;10167;42.852;23.042;2024-01-16T04:01:53;0.10;;;0.10;;
20012;SDS011;10167;42.852;23.042;2024-01-16T04:04:24;0.20;;;0.20;;
20012;SDS011;10167;42.852;23.042;2024-01-16T04:06:54;0.13;;;0.13;;
20012;SDS011;10167;42.852;23.042;2024-01-16T04:09:23;0.17;;;0.17;;
20012;SDS011;10167;42.852;23.042;2024-01-16T04:11:52;0.13;;;0.13;;
20012;SDS011;10167;42.852;23.042;2024-01-16T04:14:21;0.45;;;0.45;;
20012;SDS011;10167;42.852;23.042;2024-01-16T04:16:50;0.30;;;0.30;;
20012;SDS011;10167;42.852;23.042;2024-01-16T04:19:21;0.20;;;0.20;;
20012;SDS011;10167;42.852;23.042;2024-01-16T04:21:52;0.10;;;0.10;;
20012;SDS011;10167;42.852;23.042;2024-01-16T04:24:21;1.40;;;1.10;;
20012;SDS011;10167;42.852;23.042;2024-01-16T04:26:50;0.30;;;0.30;;
20012;SDS011;10167;42.852;23.042;2024-01-16T04:29:19;0.47;;;0.47;;
20012;SDS011;10167;42.852;23.042;2024-01-16T04:31:48;0.22;;;0.22;;
20012;SDS011;10167;42.852;23.042;2024-01-16T04:34:17;0.40;;;0.40;;
20012;SDS011;10167;42.852;23.042;2024-01-16T04:36:47;0.17;;;0.17;;
20012;SDS011;10167;42.852;23.042;2024-01-16T04:39:19;0.15;;;0.15;;
20012;SDS011;10167;42.852;23.042;2024-01-16T04:41:50;0.55;;;0.55;;
20012;SDS011;10167;42.852;23.042;2024-01-16T04:44:19;4.00;;;1.75;;
20012;SDS011;10167;42.852;23.042;2024-01-16T04:46:48;4.53;;;4.10;;
20012;SDS011;10167;42.852;23.042;2024-01-16T04:49:18;20.38;;;6.40;;
20012;SDS011;10167;42.852;23.042;2024-01-16T04:51:47;27.13;;;9.80;;
20012;SDS011;10167;42.852;23.042;2024-01-16T04:54:18;21.55;;;8.38;;
20012;SDS011;10167;42.852;23.042;2024-01-16T04:56:47;25.80;;;10.15;;
20012;SDS011;10167;42.852;23.042;2024-01-16T04:59:16;13.25;;;5.25;;
20012;SDS011;10167;42.852;23.042;2024-01-16T05:01:45;17.85;;;7.95;;
20012;SDS011;10167;42.852;23.042;2024-01-16T05:04:15;11.23;;;4.00;;
20012;SDS011;10167;42.852;23.042;2024-01-16T05:06:44;6.20;;;4.68;;
20012;SDS011;10167;42.852;23.042;2024-01-16T05:09:13;10.27;;;5.55;;
20012;SDS011;10167;42.852;23.042;2024-01-16T05:11:44;4.68;;;3.30;;
20012;SDS011;10167;42.852;23.042;2024-01-16T05:14:13;10.95;;;5.25;;
20012;SDS011;10167;42.852;23.042;2024-01-16T05:16:42;9.40;;;2.80;;
20012;SDS011;10167;42.852;23.042;2024-01-16T05:19:11;2.78;;;2.13;;
20012;SDS011;10167;42.852;23.042;2024-01-16T05:21:41;1.75;;;1.52;;
20012;SDS011;10167;42.852;23.042;2024-01-16T05:24:10;2.10;;;0.60;;
20012;SDS011;10167;42.852;23.042;2024-01-16T05:26:39;1.08;;;0.98;;
20012;SDS011;10167;42.852;23.042;2024-01-16T05:29:10;0.88;;;0.88;;
20012;SDS011;10167;42.852;23.042;2024-01-16T05:31:39;0.32;;;0.32;;
20012;SDS011;10167;42.852;23.042;2024-01-16T05:34:10;0.30;;;0.30;;
20012;SDS011;10167;42.852;23.042;2024-01-16T05:36:39;0.22;;;0.22;;
20012;SDS011;10167;42.852;23.042;2024-01-16T05:39:09;0.20;;;0.20;;
20012;SDS011;10167;42.852;23.042;2024-01-16T05:41:38;1.05;;;0.40;;
20012;SDS011;10167;42.852;23.042;2024-01-16T05:44:08;0.30;;;0.30;;
20012;SDS011;10167;42.852;23.042;2024-01-16T05:46:38;0.50;;;0.50;;
20012;SDS011;10167;42.852;23.042;2024-01-16T05:49:07;0.52;;;0.38;;
20012;SDS011;10167;42.852;23.042;2024-01-16T05:51:37;0.20;;;0.20;;
20012;SDS011;10167;42.852;23.042;2024-01-16T05:54:07;0.20;;;0.20;;
20012;SDS011;10167;42.852;23.042;2024-01-16T05:56:36;0.50;;;0.50;;
20012;SDS011;10167;42.852;23.042;2024-01-16T05:59:05;0.10;;;0.10;;
20012;SDS011;10167;42.852;23.042;2024-01-16T06:01:36;0.50;;;0.50;;
20012;SDS011;10167;42.852;23.042;2024-01-16T06:04:06;0.55;;;0.55;;
20012;SDS011;10167;42.852;23.042;2024-01-16T06:06:37;0.20;;;0.20;;
20012;SDS011;10167;42.852;23.042;2024-01-16T06:09:11;0.32;;;0.17;;
20012;SDS011;10167;42.852;23.042;2024-01-16T06:11:41;0.20;;;0.20;;
20012;SDS011;10167;42.852;23.042;2024-01-16T06:14:11;0.30;;;0.30;;
20012;SDS011;10167;42.852;23.042;2024-01-16T06:16:42;0.22;;;0.22;;
20012;SDS011;10167;42.852;23.042;2024-01-16T06:19:11;1.75;;;0.63;;
20012;SDS011;10167;42.852;23.042;2024-01-16T06:21:40;0.25;;;0.25;;
20012;SDS011;10167;42.852;23.042;2024-01-16T06:24:09;0.20;;;0.20;;
20012;SDS011;10167;42.852;23.042;2024-01-16T06:26:40;0.47;;;0.47;;
20012;SDS011;10167;42.852;23.042;2024-01-16T06:29:10;0.90;;;0.45;;
20012;SDS011;10167;42.852;23.042;2024-01-16T06:31:55;1.02;;;0.80;;
20012;SDS011;10167;42.852;23.042;2024-01-16T06:34:25;0.13;;;0.13;;
20012;SDS011;10167;42.852;23.042;2024-01-16T06:36:54;0.20;;;0.20;;
20012;SDS011;10167;42.852;23.042;2024-01-16T06:39:23;0.32;;;0.17;;
20012;SDS011;10167;42.852;23.042;2024-01-16T06:41:52;0.47;;;0.47;;
20012;SDS011;10167;42.852;23.042;2024-01-16T06:44:22;0.35;;;0.30;;
20012;SDS011;10167;42.852;23.042;2024-01-16T06:46:51;2.03;;;1.13;;
20012;SDS011;10167;42.852;23.042;2024-01-16T06:49:23;1.45;;;1.30;;
20012;SDS011;10167;42.852;23.042;2024-01-16T06:51:52;0.57;;;0.57;;
20012;SDS011;10167;42.852;23.042;2024-01-16T06:54:21;0.15;;;0.15;;
20012;SDS011;10167;42.852;23.042;2024-01-16T06:56:50;0.20;;;0.20;;
20012;SDS011;10167;42.852;23.042;2024-01-16T06:59:20;0.30;;;0.30;;
20012;SDS011;10167;42.852;23.042;2024-01-16T07:01:50;0.55;;;0.50;;
20012;SDS011;10167;42.852;23.042;2024-01-16T07:04:19;0.63;;;0.60;;
20012;SDS011;10167;42.852;23.042;2024-01-16T07:06:50;0.20;;;0.20;;
20012;SDS011;10167;42.852;23.042;2024-01-16T07:09:19;0.60;;;0.60;;
20012;SDS011;10167;42.852;23.042;2024-01-16T07:11:48;0.65;;;0.65;;
20012;SDS011;10167;42.852;23.042;2024-01-16T07:14:20;1.10;;;0.98;;
20012;SDS011;10167;42.852;23.042;2024-01-16T07:16:50;0.40;;;0.40;;
20012;SDS011;10167;42.852;23.042;2024-01-16T07:19:19;2.28;;;1.30;;
20012;SDS011;10167;42.852;23.042;2024-01-16T07:21:50;2.08;;;0.95;;
20012;SDS011;10167;42.852;23.042;2024-01-16T07:24:19;0.93;;;0.90;;
20012;SDS011;10167;42.852;23.042;2024-01-16T07:26:48;1.55;;;1.15;;
20012;SDS011;10167;42.852;23.042;2024-01-16T07:29:21;1.10;;;0.63;;
20012;SDS011;10167;42.852;23.042;2024-01-16T07:31:50;4.47;;;2.15;;
20012;SDS011;10167;42.852;23.042;2024-01-16T07:34:20;0.60;;;0.60;;
20012;SDS011;10167;42.852;23.042;2024-01-16T07:36:51;1.00;;;1.00;;
20012;SDS011;10167;42.852;23.042;2024-01-16T07:39:22;0.93;;;0.93;;
20012;SDS011;10167;42.852;23.042;2024-01-16T07:41:51;0.55;;;0.55;;
20012;SDS011;10167;42.852;23.042;2024-01-16T07:44:21;1.45;;;1.38;;
20012;SDS011;10167;42.852;23.042;2024-01-16T07:46:50;4.25;;;3.53;;
20012;SDS011;10167;42.852;23.042;2024-01-16T07:49:20;1.67;;;1.27;;
20012;SDS011;10167;42.852;23.042;2024-01-16T07:51:49;1.50;;;1.10;;
20012;SDS011;10167;42.852;23.042;2024-01-16T07:54:20;0.82;;;0.80;;
20012;SDS011;10167;42.852;23.042;2024-01-16T07:56:49;2.78;;;0.90;;
20012;SDS011;10167;42.852;23.042;2024-01-16T07:59:18;0.85;;;0.85;;
20012;SDS011;10167;42.852;23.042;2024-01-16T08:01:48;6.28;;;2.17;;
20012;SDS011;10167;42.852;23.042;2024-01-16T08:04:17;10.43;;;1.10;;
20012;SDS011;10167;42.852;23.042;2024-01-16T08:06:47;0.63;;;0.55;;
20012;SDS011;10167;42.852;23.042;2024-01-16T08:09:17;0.68;;;0.68;;
20012;SDS011;10167;42.852;23.042;2024-01-16T08:11:49;0.50;;;0.50;;
20012;SDS011;10167;42.852;23.042;2024-01-16T08:14:18;0.82;;;0.82;;
20012;SDS011;10167;42.852;23.042;2024-01-16T08:16:47;1.48;;;1.38;;
20012;SDS011;10167;42.852;23.042;2024-01-16T08:19:16;1.77;;;0.45;;
20012;SDS011;10167;42.852;23.042;2024-01-16T08:21:46;1.77;;;1.65;;
20012;SDS011;10167;42.852;23.042;2024-01-16T08:24:15;0.43;;;0.43;;
20012;SDS011;10167;42.852;23.042;2024-01-16T08:26:44;0.70;;;0.40;;
20012;SDS011;10167;42.852;23.042;2024-01-16T08:29:15;0.30;;;0.30;;
20012;SDS011;10167;42.852;23.042;2024-01-16T08:31:44;1.20;;;1.10;;
20012;SDS011;10167;42.852;23.042;2024-01-16T08:34:14;0.52;;;0.47;;
20012;SDS011;10167;42.852;23.042;2024-01-16T08:36:43;0.40;;;0.40;;
20012;SDS011;10167;42.852;23.042;2024-01-16T08:39:13;0.32;;;0.32;;
20012;SDS011;10167;42.852;23.042;2024-01-16T08:41:43;0.30;;;0.30;;
20012;SDS011;10167;42.852;23.042;2024-01-16T08:44:14;0.40;;;0.40;;
20012;SDS011;10167;42.852;23.042;2024-01-16T08:46:43;0.20;;;0.20;;
20012;SDS011;10167;42.852;23.042;2024-01-16T08:49:13;1.13;;;1.02;;
20012;SDS011;10167;42.852;23.042;2024-01-16T08:51:47;0.55;;;0.55;;
20012;SDS011;10167;42.852;23.042;2024-01-16T08:54:16;0.50;;;0.50;;
20012;SDS011;10167;42.852;23.042;2024-01-16T08:56:45;0.98;;;0.90;;
20012;SDS011;10167;42.852;23.042;2024-01-16T08:59:16;0.40;;;0.40;;
20012;SDS011;10167;42.852;23.042;2024-01-16T09:01:45;0.52;;;0.52;;
20012;SDS011;10167;42.852;23.042;2024-01-16T09:04:15;1.27;;;0.90;;
20012;SDS011;10167;42.852;23.042;2024-01-16T09:06:45;1.65;;;1.55;;
20012;SDS011;10167;42.852;23.042;2024-01-16T09:09:18;0.22;;;0.22;;
20012;SDS011;10167;42.852;23.042;2024-01-16T09:11:50;0.88;;;0.82;;
20012;SDS011;10167;42.852;23.042;2024-01-16T09:14:21;5.63;;;1.77;;
20012;SDS011;10167;42.852;23.042;2024-01-16T09:16:50;1.95;;;1.00;;
20012;SDS011;10167;42.852;23.042;2024-01-16T09:19:20;5.07;;;3.00;;
20012;SDS011;10167;42.852;23.042;2024-01-16T09:21:50;4.32;;;2.05;;
20012;SDS011;10167;42.852;23.042;2024-01-16T09:24:19;0.57;;;0.57;;
20012;SDS011;10167;42.852;23.042;2024-01-16T09:26:48;1.00;;;0.95;;
20012;SDS011;10167;42.852;23.042;2024-01-16T09:29:17;0.90;;;0.68;;
20012;SDS011;10167;42.852;23.042;2024-01-16T09:31:49;1.83;;;1.70;;
20012;SDS011;10167;42.852;23.042;2024-01-16T09:34:18;0.68;;;0.68;;
20012;SDS011;10167;42.852;23.042;2024-01-16T09:36:48;0.95;;;0.95;;
20012;SDS011;10167;42.852;23.042;2024-01-16T09:39:17;0.75;;;0.75;;
20012;SDS011;10167;42.852;23.042;2024-01-16T09:41:46;0.28;;;0.28;;
20012;SDS011;10167;42.852;23.042;2024-01-16T09:44:17;8.82;;;1.23;;
20012;SDS011;10167;42.852;23.042;2024-01-16T09:46:46;0.45;;;0.45;;
20012;SDS011;10167;42.852;23.042;2024-01-16T09:49:20;0.63;;;0.63;;
20012;SDS011;10167;42.852;23.042;2024-01-16T09:51:50;1.40;;;0.63;;
20012;SDS011;10167;42.852;23.042;2024-01-16T09:54:20;0.55;;;0.50;;
20012;SDS011;10167;42.852;23.042;2024-01-16T09:56:50;3.38;;;1.67;;
20012;SDS011;10167;42.852;23.042;2024-01-16T10:01:52;0.43;;;0.43;;
20012;SDS011;10167;42.852;23.042;2024-01-16T10:04:25;0.37;;;0.37;;
20012;SDS011;10167;42.852;23.042;2024-01-16T10:06:55;0.30;;;0.30;;
20012;SDS011;10167;42.852;23.042;2024-01-16T10:09:27;0.60;;;0.60;;
20012;SDS011;10167;42.852;23.042;2024-01-16T10:11:56;0.63;;;0.50;;
20012;SDS011;10167;42.852;23.042;2024-01-16T10:14:27;0.50;;;0.47;;
20012;SDS011;10167;42.852;23.042;2024-01-16T10:16:58;0.20;;;0.20;;
20012;SDS011;10167;42.852;23.042;2024-01-16T10:19:31;2.70;;;1.23;;
20012;SDS011;10167;42.852;23.042;2024-01-16T10:22:20;1.85;;;0.63;;
20012;SDS011;10167;42.852;23.042;2024-01-16T10:25:03;0.52;;;0.52;;
20012;SDS011;10167;42.852;23.042;2024-01-16T10:27:34;0.75;;;0.75;;
20012;SDS011;10167;42.852;23.042;2024-01-16T10:30:04;0.55;;;0.55;;
20012;SDS011;10167;42.852;23.042;2024-01-16T10:32:35;8.35;;;0.63;;
20012;SDS011;10167;42.852;23.042;2024-01-16T10:35:08;1.15;;;0.50;;
20012;SDS011;10167;42.852;23.042;2024-01-16T10:37:43;1.45;;;0.30;;
20012;SDS011;10167;42.852;23.042;2024-01-16T10:40:14;0.77;;;0.77;;
20012;SDS011;10167;42.852;23.042;2024-01-16T10:42:56;0.73;;;0.63;;
20012;SDS011;10167;42.852;23.042;2024-01-16T10:45:27;0.35;;;0.35;;
20012;SDS011;10167;42.852;23.042;2024-01-16T10:48:06;0.20;;;0.20;;
20012;SDS011;10167;42.852;23.042;2024-01-16T10:50:38;0.20;;;0.20;;
20012;SDS011;10167;42.852;23.042;2024-01-16T10:53:11;0.32;;;0.32;;
20012;SDS011;10167;42.852;23.042;2024-01-16T10:55:46;0.43;;;0.25;;
20012;SDS011;10167;42.852;23.042;2024-01-16T10:58:20;0.80;;;0.80;;
20012;SDS011;10167;42.852;23.042;2024-01-16T11:00:52;1.13;;;0.90;;
20012;SDS011;10167;42.852;23.042;2024-01-16T11:03:24;1.65;;;1.25;;
20012;SDS011;10167;42.852;23.042;2024-01-16T11:05:59;1.00;;;0.52;;
20012;SDS011;10167;42.852;23.042;2024-01-16T11:11:00;0.10;;;0.10;;
20012;SDS011;10167;42.852;23.042;2024-01-16T11:13:33;0.50;;;0.50;;
20012;SDS011;10167;42.852;23.042;2024-01-16T11:16:03;0.20;;;0.20;;
20012;SDS011;10167;42.852;23.042;2024-01-16T11:18:34;0.28;;;0.28;;
20012;SDS011;10167;42.852;23.042;2024-01-16T11:21:06;0.47;;;0.47;;
20012;SDS011;10167;42.852;23.042;2024-01-16T11:23:46;0.10;;;0.10;;
20012;SDS011;10167;42.852;23.042;2024-01-16T11:26:25;0.20;;;0.20;;
20012;SDS011;10167;42.852;23.042;2024-01-16T11:28:55;0.50;;;0.50;;
20012;SDS011;10167;42.852;23.042;2024-01-16T11:31:27;2.20;;;1.35;;
20012;SDS011;10167;42.852;23.042;2024-01-16T11:33:58;0.10;;;0.10;;
20012;SDS011;10167;42.852;23.042;2024-01-16T11:39:23;1.70;;;1.60;;
20012;SDS011;10167;42.852;23.042;2024-01-16T11:41:54;15.98;;;1.60;;
20012;SDS011;10167;42.852;23.042;2024-01-16T11:44:40;3.92;;;1.25;;
20012;SDS011;10167;42.852;23.042;2024-01-16T11:47:15;1.02;;;0.82;;
20012;SDS011;10167;42.852;23.042;2024-01-16T11:49:46;1.63;;;1.45;;
20012;SDS011;10167;42.852;23.042;2024-01-16T11:52:38;1.45;;;1.35;;
20012;SDS011;10167;42.852;23.042;2024-01-16T11:55:27;0.63;;;0.63;;
20012;SDS011;10167;42.852;23.042;2024-01-16T12:01:05;8.32;;;2.30;;
20012;SDS011;10167;42.852;23.042;2024-01-16T12:03:35;1.50;;;0.95;;
20012;SDS011;10167;42.852;23.042;2024-01-16T12:06:05;9.07;;;1.27;;
20012;SDS011;10167;42.852;23.042;2024-01-16T12:08:38;1.83;;;1.70;;
20012;SDS011;10167;42.852;23.042;2024-01-16T12:11:07;1.75;;;1.52;;
20012;SDS011;10167;42.852;23.042;2024-01-16T12:13:37;1.38;;;1.27;;
20012;SDS011;10167;42.852;23.042;2024-01-16T12:16:06;0.57;;;0.55;;
20012;SDS011;10167;42.852;23.042;2024-01-16T12:18:35;0.80;;;0.65;;
20012;SDS011;10167;42.852;23.042;2024-01-16T12:21:12;0.45;;;0.45;;
20012;SDS011;10167;42.852;23.042;2024-01-16T12:23:44;0.20;;;0.20;;
20012;SDS011;10167;42.852;23.042;2024-01-16T12:26:31;1.35;;;0.85;;
20012;SDS011;10167;42.852;23.042;2024-01-16T12:29:00;0.38;;;0.30;;
20012;SDS011;10167;42.852;23.042;2024-01-16T12:31:30;0.43;;;0.35;;
20012;SDS011;10167;42.852;23.042;2024-01-16T12:34:04;0.13;;;0.13;;
20012;SDS011;10167;42.852;23.042;2024-01-16T12:36:36;0.10;;;0.10;;
20012;SDS011;10167;42.852;23.042;2024-01-16T12:39:07;0.30;;;0.30;;
20012;SDS011;10167;42.852;23.042;2024-01-16T12:41:40;0.73;;;0.73;;
20012;SDS011;10167;42.852;23.042;2024-01-16T12:44:13;0.22;;;0.22;;
20012;SDS011;10167;42.852;23.042;2024-01-16T12:46:44;2.85;;;1.70;;
20012;SDS011;10167;42.852;23.042;2024-01-16T12:49:23;0.20;;;0.20;;
20012;SDS011;10167;42.852;23.042;2024-01-16T12:54:45;0.10;;;0.10;;
20012;SDS011;10167;42.852;23.042;2024-01-16T12:57:18;0.35;;;0.35;;
20012;SDS011;10167;42.852;23.042;2024-01-16T12:59:48;0.70;;;0.68;;
20012;SDS011;10167;42.852;23.042;2024-01-16T13:02:19;4.63;;;2.20;;
20012;SDS011;10167;42.852;23.042;2024-01-16T13:04:57;18.55;;;9.38;;
20012;SDS011;10167;42.852;23.042;2024-01-16T13:07:29;28.95;;;11.65;;
20012;SDS011;10167;42.852;23.042;2024-01-16T13:10:09;47.10;;;15.27;;
20012;SDS011;10167;42.852;23.042;2024-01-16T13:12:44;24.08;;;7.05;;
20012;SDS011;10167;42.852;23.042;2024-01-16T13:15:13;32.25;;;14.32;;
20012;SDS011;10167;42.852;23.042;2024-01-16T13:17:44;12.48;;;7.00;;
20012;SDS011;10167;42.852;23.042;2024-01-16T13:20:16;32.60;;;10.75;;
20012;SDS011;10167;42.852;23.042;2024-01-16T13:22:46;25.58;;;11.32;;
20012;SDS011;10167;42.852;23.042;2024-01-16T13:25:20;7.38;;;3.10;;
20012;SDS011;10167;42.852;23.042;2024-01-16T13:27:50;11.13;;;4.70;;
20012;SDS011;10167;42.852;23.042;2024-01-16T13:30:19;14.43;;;5.10;;
20012;SDS011;10167;42.852;23.042;2024-01-16T13:32:48;16.77;;;7.22;;
20012;SDS011;10167;42.852;23.042;2024-01-16T13:35:18;5.40;;;2.85;;
20012;SDS011;10167;42.852;23.042;2024-01-16T13:37:50;8.47;;;5.60;;
20012;SDS011;10167;42.852;23.042;2024-01-16T13:40:21;6.03;;;2.17;;
20012;SDS011;10167;42.852;23.042;2024-01-16T13:42:51;12.68;;;5.82;;
20012;SDS011;10167;42.852;23.042;2024-01-16T13:45:20;16.35;;;5.85;;
20012;SDS011;10167;42.852;23.042;2024-01-16T13:47:50;7.13;;;3.58;;
20012;SDS011;10167;42.852;23.042;2024-01-16T13:50:19;9.10;;;3.80;;
20012;SDS011;10167;42.852;23.042;2024-01-16T13:52:49;7.13;;;3.97;;
20012;SDS011;10167;42.852;23.042;2024-01-16T13:55:22;13.75;;;3.88;;
20012;SDS011;10167;42.852;23.042;2024-01-16T13:57:51;2.90;;;2.28;;
20012;SDS011;10167;42.852;23.042;2024-01-16T14:00:21;2.78;;;1.83;;
20012;SDS011;10167;42.852;23.042;2024-01-16T14:02:50;4.00;;;2.83;;
20012;SDS011;10167;42.852;23.042;2024-01-16T14:05:23;2.22;;;1.75;;
20012;SDS011;10167;42.852;23.042;2024-01-16T14:07:53;1.55;;;0.95;;
20012;SDS011;10167;42.852;23.042;2024-01-16T14:10:24;1.75;;;1.30;;
20012;SDS011;10167;42.852;23.042;2024-01-16T14:12:54;0.85;;;0.85;;
20012;SDS011;10167;42.852;23.042;2024-01-16T14:15:24;0.57;;;0.57;;
20012;SDS011;10167;42.852;23.042;2024-01-16T14:17:55;0.35;;;0.35;;
20012;SDS011;10167;42.852;23.042;2024-01-16T14:20:25;5.25;;;1.75;;
20012;SDS011;10167;42.852;23.042;2024-01-16T14:22:55;0.73;;;0.73;;
20012;SDS011;10167;42.852;23.042;2024-01-16T14:25:27;1.05;;;0.65;;
20012;SDS011;10167;42.852;23.042;2024-01-16T14:27:58;0.85;;;0.73;;
20012;SDS011;10167;42.852;23.042;2024-01-16T14:30:31;0.57;;;0.57;;
20012;SDS011;10167;42.852;23.042;2024-01-16T14:33:01;0.57;;;0.57;;
20012;SDS011;10167;42.852;23.042;2024-01-16T14:35:34;3.92;;;0.82;;
20012;SDS011;10167;42.852;23.042;2024-01-16T14:38:06;0.80;;;0.60;;
20012;SDS011;10167;42.852;23.042;2024-01-16T14:40:36;0.52;;;0.52;;
20012;SDS011;10167;42.852;23.042;2024-01-16T14:43:06;0.47;;;0.40;;
20012;SDS011;10167;42.852;23.042;2024-01-16T14:45:36;1.52;;;1.42;;
20012;SDS011;10167;42.852;23.042;2024-01-16T14:48:05;1.38;;;1.27;;
20012;SDS011;10167;42.852;23.042;2024-01-16T14:50:37;1.88;;;0.73;;
20012;SDS011;10167;42.852;23.042;2024-01-16T14:53:06;0.57;;;0.57;;
20012;SDS011;10167;42.852;23.042;2024-01-16T14:55:37;1.90;;;1.77;;
20012;SDS011;10167;42.852;23.042;2024-01-16T14:58:14;1.98;;;1.52;;
20012;SDS011;10167;42.852;23.042;2024-01-16T15:00:46;0.68;;;0.68;;
20012;SDS011;10167;42.852;23.042;2024-01-16T15:03:16;0.47;;;0.47;;
20012;SDS011;10167;42.852;23.042;2024-01-16T15:05:46;4.20;;;1.15;;
20012;SDS011;10167;42.852;23.042;2024-01-16T15:08:16;1.58;;;1.48;;